Alvin, TX

12:57 AM CDT on August 31, 2014 (GMT -0500)
Ellington | Change Station
CLOSE
Current Station
Airport
Location: Ellington Field,
Elevation: 33 ft
Nearby Weather Stations

Elev 33 ft 29.61 °N, 95.16 °W | Updated 1 hour ago

Mostly Cloudy
Mostly Cloudy
79 °F
Feels Like 79 °F
N
0
Wind Variable Wind from North

Today
High -- | Low -- °F
--% Chance of Precip.
Yesterday
High -- | Low -- °F
Precip. -- in
6:57 AM 7:44 PM
Waxing Crescent, 28% visible
Pressure 29.99 in
Visibility 10.0 miles
Clouds Few 3000 ft
Mostly Cloudy 25000 ft
Dew Point 73 °F
Humidity 83%
Rainfall 0.00 in
Snow Depth Not available.
UV 0 out of 12
Pollen 1.00 out of 12
Ozone Good
PM2.5 Good
Flu Activity Not available.
METAR KEFD 310450Z 00000KT 10SM FEW030 BKN250 26/23 A2999

More Conditions Fewer Conditions

Pressure 29.99 in
Visibility 10.0 miles
Clouds Few 3000 ft
Mostly Cloudy 25000 ft
Dew Point 73 °F
Humidity 83%
Rainfall 0.00 in
Snow Depth Not available.
UV 0 out of 12
Pollen 1.00 out of 12
Ozone Good
PM2.5 Good
Flu Activity Not available.
METAR KEFD 310450Z 00000KT 10SM FEW030 BKN250 26/23 A2999

More Conditions Fewer Conditions

10-Day Weather Forecast

Almanac

Astronomy

Aug. 31, 2014 Rise Set
Actual Time 6:57 AM CDT 7:44 PM CDT
Civil Twilight 6:33 AM CDT 8:08 PM CDT
Nautical Twilight 6:05 AM CDT 8:36 PM CDT
Astronomical Twilight 5:35 AM CDT 9:05 PM CDT
Moon 12:17 PM CDT 11:28 PM CDT
Length of Visible Light 13h 34m
Length of Day
12h 46m
Tomorrow will be 1m 41s shorter.
Waxing Crescent, 28% of the Moon is Illuminated
Today
Waxing Crescent
Sep 2
First Quarter
Sep 8
Full
Sep 15
Last Quarter
Sep 24
New

Today's Extremes

State Highs State Lows

Community

WunderPhotos

Upload Photos

1,748,790 photos uploaded!

Nearby

Air Quality

  Air Quality AQ Index Pollutant
Yesterday Good
OZONE
Yesterday Good
PM2.5
Current Good
PM2.5
Current Good
OZONE
Saturday Good
OZONE
Saturday Good
PM10
Sunday Good
OZONE
Sunday Good
PM10
Monday Good
OZONE
Monday Good
PM10
Tuesday Good
OZONE
Tuesday Good
PM10

Snow Depth

Station Depth Elevation
No new snow has been reported.

Earthquake Activity

City Distance Mag. Time & Date
No recent earthquake activity has been reported nearby.
Minimum magnitude displayed is 2.5.

Coastal Water Temperatures

Place Temperature
Eagle Point, TX 82.0 °F
USCG Freeport, TX 82.9 °F
Galveston Pier TX 82.9 °F
Galveston Bay (North Jetty), TX 82.9 °F
Rollover Pass, TX 80.1 °F

Nearby Weather Stations